Linda Fortune — 3FOW6 — position and weather

sailwx.info

Track history (hours):
 
Tides and Currents Weather Stations Pressure Air Temp Water Temp Dewpoint Dewpoint Depression Visibility Wind Speed Wind Dir Waves Ship Positions

Linda Fortune

Last reported at 2015-Feb-05 08:27 UTC. Time now 2015-Mar-06 12:41 UTC.
Position N 01°52' E 102°26'.
Warning: this ship's position is 29 days out of date.

Length 281 m; draft 17.4 m.

Type: Cargo ship. MMSI: 352793000.

Date/timePositionNaut miles runAvg speedWind from/ knotsBaromVisibWave heightAir tempDewpointWater temp
2015-Feb-05 08:27N 01°52' E 102°26'1112.8
2015-Feb-05 07:33N 01°47' E 102°36'1312.7
2015-Feb-05 06:33N 01°42' E 102°48'6610.9
2015-Feb-05 00:27N 01°09' E 103°46'1010.9
2015-Feb-04 23:32N 01°14' E 103°54'7 7.1
2015-Feb-04 22:33N 01°17' E 104°00'1 0.8
2015-Feb-04 21:29N 01°18' E 103°60'0 0.0
2015-Feb-04 20:29N 01°18' E 103°60'0 0.0
2015-Feb-04 19:29N 01°18' E 103°60'0 0.0
2015-Feb-04 18:23N 01°18' E 103°60'0 0.0
2015-Feb-04 17:29N 01°18' E 103°60'0 0.0
2015-Feb-04 16:05N 01°18' E 103°60'0 0.0
2015-Feb-04 14:23N 01°18' E 103°60'0 0.0
2015-Feb-04 13:17N 01°18' E 103°60'0 0.1
2015-Feb-04 11:29N 01°17' E 103°60'0 0.1
2015-Feb-04 10:29N 01°18' E 104°00'0 0.0
2015-Feb-04 09:29N 01°18' E 104°00'0 0.0
2015-Feb-04 08:29N 01°18' E 104°00'0 0.0
2015-Feb-04 07:29N 01°18' E 104°00'0 0.0
2015-Feb-04 06:23N 01°18' E 104°00'0 0.3
2015-Feb-04 05:23N 01°17' E 103°60'0 0.1
2015-Feb-04 04:29N 01°18' E 103°60'0 0.0
2015-Feb-04 03:23N 01°18' E 103°60'0 0.0
2015-Feb-04 02:29N 01°18' E 103°60'0 0.0
2015-Feb-04 01:11N 01°18' E 103°60'0 0.0
2015-Feb-04 00:26N 01°18' E 103°60'0 0.0
2015-Feb-03 23:23N 01°18' E 103°60'0 0.0
2015-Feb-03 22:26N 01°18' E 103°60'0 0.1
2015-Feb-03 21:29N 01°18' E 103°60'0 0.0
2015-Feb-03 20:29N 01°18' E 103°60'0 0.1
2015-Feb-03 19:26N 01°18' E 103°60'0 0.0
2015-Feb-03 18:17N 01°18' E 103°60'0 0.1
2015-Feb-03 17:32N 01°18' E 103°60'0 0.1
2015-Feb-03 16:29N 01°18' E 103°60'0 0.0
2015-Feb-03 15:29N 01°18' E 103°60'0 0.0
2015-Feb-03 14:08N 01°18' E 103°60'0 0.0
2015-Feb-03 13:29N 01°18' E 103°60'0 0.1
2015-Feb-03 12:20N 01°17' E 103°60'0 0.2
2015-Feb-03 11:23N 01°17' E 103°60'0 0.1
2015-Feb-03 09:29N 01°18' E 103°60'0 0.1
2015-Feb-03 08:29N 01°18' E 104°00'0 0.1
2015-Feb-03 07:23N 01°18' E 103°60'0 0.0
2015-Feb-03 06:11N 01°18' E 103°60'0 0.0
2015-Feb-03 05:29N 01°18' E 103°60'0 0.1
2015-Feb-03 04:17N 01°17' E 103°60'0 0.1
2015-Feb-03 02:32N 01°18' E 103°60'0 0.1
2015-Feb-03 01:29N 01°18' E 103°60'1 0.3
2015-Feb-02 23:27N 01°17' E 103°60'6 6.3
2015-Feb-02 22:32N 01°16' E 104°05'7 6.5
2015-Feb-02 21:24N 01°17' E 104°13'  
Track history (hours):
 
Tides and Currents Weather Stations Pressure Air Temp Water Temp Dewpoint Dewpoint Depression Visibility Wind Speed Wind Dir Waves Ship Positions

Linda Fortune

Last reported at 2015-Feb-05 08:27 UTC. Time now 2015-Mar-06 12:41 UTC.
Position N 01°52' E 102°26'.
Warning: this ship's position is 29 days out of date.

Length 281 m; draft 17.4 m.

Type: Cargo ship. MMSI: 352793000.

Date/timePositionNaut miles runAvg speedWind from/ knotsBaromVisibWave heightAir tempDewpointWater temp
2015-Feb-05 08:27N 01°52' E 102°26'1112.8
2015-Feb-05 07:33N 01°47' E 102°36'1312.7
2015-Feb-05 06:33N 01°42' E 102°48'6610.9
2015-Feb-05 00:27N 01°09' E 103°46'1010.9
2015-Feb-04 23:32N 01°14' E 103°54'7 7.1
2015-Feb-04 22:33N 01°17' E 104°00'1 0.8
2015-Feb-04 21:29N 01°18' E 103°60'0 0.0
2015-Feb-04 20:29N 01°18' E 103°60'0 0.0
2015-Feb-04 19:29N 01°18' E 103°60'0 0.0
2015-Feb-04 18:23N 01°18' E 103°60'0 0.0
2015-Feb-04 17:29N 01°18' E 103°60'0 0.0
2015-Feb-04 16:05N 01°18' E 103°60'0 0.0
2015-Feb-04 14:23N 01°18' E 103°60'0 0.0
2015-Feb-04 13:17N 01°18' E 103°60'0 0.1
2015-Feb-04 11:29N 01°17' E 103°60'0 0.1
2015-Feb-04 10:29N 01°18' E 104°00'0 0.0
2015-Feb-04 09:29N 01°18' E 104°00'0 0.0
2015-Feb-04 08:29N 01°18' E 104°00'0 0.0
2015-Feb-04 07:29N 01°18' E 104°00'0 0.0
2015-Feb-04 06:23N 01°18' E 104°00'0 0.3
2015-Feb-04 05:23N 01°17' E 103°60'0 0.1
2015-Feb-04 04:29N 01°18' E 103°60'0 0.0
2015-Feb-04 03:23N 01°18' E 103°60'0 0.0
2015-Feb-04 02:29N 01°18' E 103°60'0 0.0
2015-Feb-04 01:11N 01°18' E 103°60'0 0.0
2015-Feb-04 00:26N 01°18' E 103°60'0 0.0
2015-Feb-03 23:23N 01°18' E 103°60'0 0.0
2015-Feb-03 22:26N 01°18' E 103°60'0 0.1
2015-Feb-03 21:29N 01°18' E 103°60'0 0.0
2015-Feb-03 20:29N 01°18' E 103°60'0 0.1
2015-Feb-03 19:26N 01°18' E 103°60'0 0.0
2015-Feb-03 18:17N 01°18' E 103°60'0 0.1
2015-Feb-03 17:32N 01°18' E 103°60'0 0.1
2015-Feb-03 16:29N 01°18' E 103°60'0 0.0
2015-Feb-03 15:29N 01°18' E 103°60'0 0.0
2015-Feb-03 14:08N 01°18' E 103°60'0 0.0
2015-Feb-03 13:29N 01°18' E 103°60'0 0.1
2015-Feb-03 12:20N 01°17' E 103°60'0 0.2
2015-Feb-03 11:23N 01°17' E 103°60'0 0.1
2015-Feb-03 09:29N 01°18' E 103°60'0 0.1
2015-Feb-03 08:29N 01°18' E 104°00'0 0.1
2015-Feb-03 07:23N 01°18' E 103°60'0 0.0
2015-Feb-03 06:11N 01°18' E 103°60'0 0.0
2015-Feb-03 05:29N 01°18' E 103°60'0 0.1
2015-Feb-03 04:17N 01°17' E 103°60'0 0.1
2015-Feb-03 02:32N 01°18' E 103°60'0 0.1
2015-Feb-03 01:29N 01°18' E 103°60'1 0.3
2015-Feb-02 23:27N 01°17' E 103°60'6 6.3
2015-Feb-02 22:32N 01°16' E 104°05'7 6.5
2015-Feb-02 21:24N 01°17' E 104°13'  

Dump ship's entire track history